Geelong, Australia
Current Conditions -  °F | °C
As of 11:30 AM on Tuesday 25 Nov 2014 (Local Time) from YMAV Reporting Station
Broken Clouds Broken Clouds  
Wind Chill: 64°   Ceiling: 6400
Heat Index: 64°   Visibility: 6mi
Dew Point: 45°   Wind: 20mph
Humidity: 49%   Direction: 280°W
Pressure: 30.06"   Gusts: NA
Location:  38.15°S, 144.36°E
Report Text: YMAV 250030Z AUTO 28017KT 9999 // SCT040 BKN064 18/07 Q1018
Loading
Personal Weather Stations






























Interactive Weather Map New forecast layout! Learn more

10-Day Weather Forecast

Advertisements
Track Severe Weather on mobile